sensor_id;sensor_type;location;lat;lon;timestamp;P1;durP1;ratioP1;P2;durP2;ratioP2
9465;SDS011;4771;48.726;9.006;2024-03-25T00:01:50;5.70;;;1.97;;
9465;SDS011;4771;48.726;9.006;2024-03-25T00:04:18;7.30;;;2.33;;
9465;SDS011;4771;48.726;9.006;2024-03-25T00:06:47;3.27;;;1.97;;
9465;SDS011;4771;48.726;9.006;2024-03-25T00:09:12;8.87;;;2.10;;
9465;SDS011;4771;48.726;9.006;2024-03-25T00:11:40;2.20;;;2.00;;
9465;SDS011;4771;48.726;9.006;2024-03-25T00:14:06;3.97;;;1.90;;
9465;SDS011;4771;48.726;9.006;2024-03-25T00:16:32;2.90;;;1.83;;
9465;SDS011;4771;48.726;9.006;2024-03-25T00:18:59;5.13;;;1.90;;
9465;SDS011;4771;48.726;9.006;2024-03-25T00:21:27;4.80;;;2.10;;
9465;SDS011;4771;48.726;9.006;2024-03-25T00:23:53;5.20;;;2.10;;
9465;SDS011;4771;48.726;9.006;2024-03-25T00:26:21;3.63;;;2.03;;
9465;SDS011;4771;48.726;9.006;2024-03-25T00:28:47;3.37;;;2.00;;
9465;SDS011;4771;48.726;9.006;2024-03-25T00:31:14;3.13;;;2.20;;
9465;SDS011;4771;48.726;9.006;2024-03-25T00:33:40;4.97;;;2.00;;
9465;SDS011;4771;48.726;9.006;2024-03-25T00:36:07;4.03;;;2.10;;
9465;SDS011;4771;48.726;9.006;2024-03-25T00:38:34;4.93;;;1.97;;
9465;SDS011;4771;48.726;9.006;2024-03-25T00:41:01;3.37;;;1.80;;
9465;SDS011;4771;48.726;9.006;2024-03-25T00:43:27;4.73;;;2.30;;
9465;SDS011;4771;48.726;9.006;2024-03-25T00:45:54;4.90;;;2.20;;
9465;SDS011;4771;48.726;9.006;2024-03-25T00:48:20;5.53;;;2.53;;
9465;SDS011;4771;48.726;9.006;2024-03-25T00:50:47;3.23;;;2.20;;
9465;SDS011;4771;48.726;9.006;2024-03-25T00:53:12;2.80;;;2.10;;
9465;SDS011;4771;48.726;9.006;2024-03-25T00:55:41;4.13;;;2.07;;
9465;SDS011;4771;48.726;9.006;2024-03-25T00:58:07;3.10;;;2.20;;
9465;SDS011;4771;48.726;9.006;2024-03-25T01:00:34;5.40;;;2.30;;
9465;SDS011;4771;48.726;9.006;2024-03-25T01:03:00;3.03;;;1.90;;
9465;SDS011;4771;48.726;9.006;2024-03-25T01:05:27;3.93;;;2.17;;
9465;SDS011;4771;48.726;9.006;2024-03-25T01:07:53;3.07;;;2.13;;
9465;SDS011;4771;48.726;9.006;2024-03-25T01:10:20;3.83;;;2.43;;
9465;SDS011;4771;48.726;9.006;2024-03-25T01:12:47;2.77;;;2.07;;
9465;SDS011;4771;48.726;9.006;2024-03-25T01:15:14;3.50;;;2.20;;
9465;SDS011;4771;48.726;9.006;2024-03-25T01:17:40;4.20;;;2.23;;
9465;SDS011;4771;48.726;9.006;2024-03-25T01:20:07;4.90;;;2.30;;
9465;SDS011;4771;48.726;9.006;2024-03-25T01:22:34;5.43;;;2.40;;
9465;SDS011;4771;48.726;9.006;2024-03-25T01:25:01;3.87;;;2.10;;
9465;SDS011;4771;48.726;9.006;2024-03-25T01:27:27;3.67;;;2.37;;
9465;SDS011;4771;48.726;9.006;2024-03-25T01:29:55;4.87;;;2.23;;
9465;SDS011;4771;48.726;9.006;2024-03-25T01:32:21;4.07;;;2.30;;
9465;SDS011;4771;48.726;9.006;2024-03-25T01:34:48;5.47;;;2.40;;
9465;SDS011;4771;48.726;9.006;2024-03-25T01:37:14;5.73;;;2.53;;
9465;SDS011;4771;48.726;9.006;2024-03-25T01:39:41;4.37;;;2.53;;
9465;SDS011;4771;48.726;9.006;2024-03-25T01:42:07;3.53;;;2.30;;
9465;SDS011;4771;48.726;9.006;2024-03-25T01:44:34;7.07;;;2.80;;
9465;SDS011;4771;48.726;9.006;2024-03-25T01:47:01;4.27;;;2.33;;
9465;SDS011;4771;48.726;9.006;2024-03-25T01:49:28;5.10;;;2.80;;
9465;SDS011;4771;48.726;9.006;2024-03-25T01:51:54;4.63;;;2.27;;
9465;SDS011;4771;48.726;9.006;2024-03-25T01:54:23;5.97;;;2.53;;
9465;SDS011;4771;48.726;9.006;2024-03-25T01:56:49;4.10;;;2.07;;
9465;SDS011;4771;48.726;9.006;2024-03-25T01:59:18;4.80;;;2.33;;
9465;SDS011;4771;48.726;9.006;2024-03-25T02:01:44;4.13;;;2.27;;
9465;SDS011;4771;48.726;9.006;2024-03-25T02:04:14;4.27;;;2.60;;
9465;SDS011;4771;48.726;9.006;2024-03-25T02:06:40;4.10;;;2.30;;
9465;SDS011;4771;48.726;9.006;2024-03-25T02:09:09;5.27;;;2.27;;
9465;SDS011;4771;48.726;9.006;2024-03-25T02:11:37;4.70;;;2.17;;
9465;SDS011;4771;48.726;9.006;2024-03-25T02:14:05;5.83;;;2.20;;
9465;SDS011;4771;48.726;9.006;2024-03-25T02:16:32;3.43;;;2.10;;
9465;SDS011;4771;48.726;9.006;2024-03-25T02:18:59;3.67;;;2.07;;
9465;SDS011;4771;48.726;9.006;2024-03-25T02:21:26;4.20;;;2.10;;
9465;SDS011;4771;48.726;9.006;2024-03-25T02:23:53;6.07;;;2.10;;
9465;SDS011;4771;48.726;9.006;2024-03-25T02:26:25;4.87;;;2.20;;
9465;SDS011;4771;48.726;9.006;2024-03-25T02:28:52;4.03;;;2.30;;
9465;SDS011;4771;48.726;9.006;2024-03-25T02:31:18;3.70;;;2.10;;
9465;SDS011;4771;48.726;9.006;2024-03-25T02:33:45;6.13;;;2.40;;
9465;SDS011;4771;48.726;9.006;2024-03-25T02:36:11;4.47;;;2.40;;
9465;SDS011;4771;48.726;9.006;2024-03-25T02:38:38;4.93;;;2.33;;
9465;SDS011;4771;48.726;9.006;2024-03-25T02:41:04;5.60;;;2.60;;
9465;SDS011;4771;48.726;9.006;2024-03-25T02:43:32;5.57;;;2.50;;
9465;SDS011;4771;48.726;9.006;2024-03-25T02:45:58;4.00;;;2.43;;
9465;SDS011;4771;48.726;9.006;2024-03-25T02:48:25;3.27;;;2.30;;
9465;SDS011;4771;48.726;9.006;2024-03-25T02:50:51;5.00;;;2.30;;
9465;SDS011;4771;48.726;9.006;2024-03-25T02:53:18;5.23;;;2.63;;
9465;SDS011;4771;48.726;9.006;2024-03-25T02:55:44;9.40;;;2.60;;
9465;SDS011;4771;48.726;9.006;2024-03-25T02:58:11;4.13;;;2.23;;
9465;SDS011;4771;48.726;9.006;2024-03-25T03:00:38;6.30;;;2.60;;
9465;SDS011;4771;48.726;9.006;2024-03-25T03:03:05;5.60;;;2.20;;
9465;SDS011;4771;48.726;9.006;2024-03-25T03:05:31;5.73;;;2.50;;
9465;SDS011;4771;48.726;9.006;2024-03-25T03:07:58;4.47;;;2.47;;
9465;SDS011;4771;48.726;9.006;2024-03-25T03:10:24;6.03;;;2.70;;
9465;SDS011;4771;48.726;9.006;2024-03-25T03:12:50;3.73;;;2.43;;
9465;SDS011;4771;48.726;9.006;2024-03-25T03:15:16;4.53;;;2.47;;
9465;SDS011;4771;48.726;9.006;2024-03-25T03:17:44;3.80;;;2.50;;
9465;SDS011;4771;48.726;9.006;2024-03-25T03:20:10;4.40;;;2.27;;
9465;SDS011;4771;48.726;9.006;2024-03-25T03:22:37;4.17;;;2.47;;
9465;SDS011;4771;48.726;9.006;2024-03-25T03:25:04;3.90;;;2.20;;
9465;SDS011;4771;48.726;9.006;2024-03-25T03:27:31;4.40;;;2.30;;
9465;SDS011;4771;48.726;9.006;2024-03-25T03:29:57;6.00;;;2.50;;
9465;SDS011;4771;48.726;9.006;2024-03-25T03:32:24;4.43;;;2.50;;
9465;SDS011;4771;48.726;9.006;2024-03-25T03:34:51;3.63;;;2.10;;
9465;SDS011;4771;48.726;9.006;2024-03-25T03:37:18;4.17;;;2.43;;
9465;SDS011;4771;48.726;9.006;2024-03-25T03:39:44;6.33;;;2.20;;
9465;SDS011;4771;48.726;9.006;2024-03-25T03:42:11;4.57;;;2.50;;
9465;SDS011;4771;48.726;9.006;2024-03-25T03:44:37;4.67;;;2.50;;
9465;SDS011;4771;48.726;9.006;2024-03-25T03:47:04;4.77;;;2.50;;
9465;SDS011;4771;48.726;9.006;2024-03-25T03:49:30;5.63;;;2.53;;
9465;SDS011;4771;48.726;9.006;2024-03-25T03:51:58;4.83;;;2.40;;
9465;SDS011;4771;48.726;9.006;2024-03-25T03:54:24;6.70;;;2.60;;
9465;SDS011;4771;48.726;9.006;2024-03-25T03:56:51;2.93;;;2.50;;
9465;SDS011;4771;48.726;9.006;2024-03-25T03:59:16;4.47;;;2.60;;
9465;SDS011;4771;48.726;9.006;2024-03-25T04:01:43;5.13;;;2.57;;
9465;SDS011;4771;48.726;9.006;2024-03-25T04:04:09;5.23;;;2.90;;
9465;SDS011;4771;48.726;9.006;2024-03-25T04:06:36;5.27;;;2.77;;
9465;SDS011;4771;48.726;9.006;2024-03-25T04:09:06;5.10;;;2.53;;
9465;SDS011;4771;48.726;9.006;2024-03-25T04:11:35;5.77;;;2.50;;
9465;SDS011;4771;48.726;9.006;2024-03-25T04:14:01;5.70;;;2.70;;
9465;SDS011;4771;48.726;9.006;2024-03-25T04:16:28;5.17;;;2.47;;
9465;SDS011;4771;48.726;9.006;2024-03-25T04:18:55;3.87;;;2.50;;
9465;SDS011;4771;48.726;9.006;2024-03-25T04:21:22;5.00;;;2.30;;
9465;SDS011;4771;48.726;9.006;2024-03-25T04:23:49;4.33;;;2.37;;
9465;SDS011;4771;48.726;9.006;2024-03-25T04:26:17;4.37;;;2.67;;
9465;SDS011;4771;48.726;9.006;2024-03-25T04:28:43;5.70;;;2.50;;
9465;SDS011;4771;48.726;9.006;2024-03-25T04:31:10;4.33;;;2.67;;
9465;SDS011;4771;48.726;9.006;2024-03-25T04:33:36;4.23;;;2.70;;
9465;SDS011;4771;48.726;9.006;2024-03-25T04:36:03;6.10;;;2.80;;
9465;SDS011;4771;48.726;9.006;2024-03-25T04:38:29;4.70;;;2.70;;
9465;SDS011;4771;48.726;9.006;2024-03-25T04:40:55;4.93;;;2.40;;
9465;SDS011;4771;48.726;9.006;2024-03-25T04:43:22;6.87;;;2.40;;
9465;SDS011;4771;48.726;9.006;2024-03-25T04:45:48;6.87;;;2.23;;
9465;SDS011;4771;48.726;9.006;2024-03-25T04:48:14;5.07;;;2.40;;
9465;SDS011;4771;48.726;9.006;2024-03-25T04:50:40;3.90;;;2.50;;
9465;SDS011;4771;48.726;9.006;2024-03-25T04:53:06;3.77;;;2.23;;
9465;SDS011;4771;48.726;9.006;2024-03-25T04:55:32;5.30;;;3.17;;
9465;SDS011;4771;48.726;9.006;2024-03-25T04:57:58;7.63;;;2.77;;
9465;SDS011;4771;48.726;9.006;2024-03-25T05:00:25;3.70;;;2.60;;
9465;SDS011;4771;48.726;9.006;2024-03-25T05:02:51;5.63;;;2.83;;
9465;SDS011;4771;48.726;9.006;2024-03-25T05:05:17;8.13;;;2.60;;
9465;SDS011;4771;48.726;9.006;2024-03-25T05:07:43;3.50;;;2.40;;
9465;SDS011;4771;48.726;9.006;2024-03-25T05:10:09;4.47;;;2.73;;
9465;SDS011;4771;48.726;9.006;2024-03-25T05:12:35;3.33;;;2.80;;
9465;SDS011;4771;48.726;9.006;2024-03-25T05:15:01;6.10;;;2.70;;
9465;SDS011;4771;48.726;9.006;2024-03-25T05:17:28;3.27;;;2.40;;
9465;SDS011;4771;48.726;9.006;2024-03-25T05:19:54;4.20;;;2.20;;
9465;SDS011;4771;48.726;9.006;2024-03-25T05:22:20;6.17;;;2.73;;
9465;SDS011;4771;48.726;9.006;2024-03-25T05:24:46;3.07;;;2.20;;
9465;SDS011;4771;48.726;9.006;2024-03-25T05:27:12;4.63;;;2.90;;
9465;SDS011;4771;48.726;9.006;2024-03-25T05:29:38;5.30;;;2.50;;
9465;SDS011;4771;48.726;9.006;2024-03-25T05:32:04;4.13;;;2.63;;
9465;SDS011;4771;48.726;9.006;2024-03-25T05:34:32;8.23;;;2.90;;
9465;SDS011;4771;48.726;9.006;2024-03-25T05:36:58;5.97;;;3.07;;
9465;SDS011;4771;48.726;9.006;2024-03-25T05:39:24;5.07;;;3.10;;
9465;SDS011;4771;48.726;9.006;2024-03-25T05:41:50;6.90;;;2.70;;
9465;SDS011;4771;48.726;9.006;2024-03-25T05:44:16;5.23;;;2.70;;
9465;SDS011;4771;48.726;9.006;2024-03-25T05:46:42;5.30;;;2.63;;
9465;SDS011;4771;48.726;9.006;2024-03-25T05:49:08;4.73;;;2.60;;
9465;SDS011;4771;48.726;9.006;2024-03-25T05:51:35;5.30;;;2.50;;
9465;SDS011;4771;48.726;9.006;2024-03-25T05:54:02;4.90;;;2.73;;
9465;SDS011;4771;48.726;9.006;2024-03-25T05:56:28;3.97;;;2.60;;
9465;SDS011;4771;48.726;9.006;2024-03-25T05:58:55;6.00;;;2.80;;
9465;SDS011;4771;48.726;9.006;2024-03-25T06:01:21;5.53;;;2.50;;
9465;SDS011;4771;48.726;9.006;2024-03-25T06:03:47;6.03;;;2.70;;
9465;SDS011;4771;48.726;9.006;2024-03-25T06:06:13;4.33;;;2.60;;
9465;SDS011;4771;48.726;9.006;2024-03-25T06:08:40;4.10;;;2.50;;
9465;SDS011;4771;48.726;9.006;2024-03-25T06:11:06;5.23;;;2.67;;
9465;SDS011;4771;48.726;9.006;2024-03-25T06:13:32;3.27;;;2.67;;
9465;SDS011;4771;48.726;9.006;2024-03-25T06:15:58;5.60;;;2.70;;
9465;SDS011;4771;48.726;9.006;2024-03-25T06:18:24;5.13;;;2.77;;
9465;SDS011;4771;48.726;9.006;2024-03-25T06:20:50;5.30;;;3.30;;
9465;SDS011;4771;48.726;9.006;2024-03-25T06:23:23;6.00;;;2.97;;
9465;SDS011;4771;48.726;9.006;2024-03-25T06:25:52;6.63;;;2.70;;
9465;SDS011;4771;48.726;9.006;2024-03-25T06:28:18;6.03;;;2.73;;
9465;SDS011;4771;48.726;9.006;2024-03-25T06:30:45;5.13;;;2.97;;
9465;SDS011;4771;48.726;9.006;2024-03-25T06:33:29;5.33;;;3.00;;
9465;SDS011;4771;48.726;9.006;2024-03-25T06:36:14;5.67;;;2.70;;
9465;SDS011;4771;48.726;9.006;2024-03-25T06:38:40;4.33;;;2.70;;
9465;SDS011;4771;48.726;9.006;2024-03-25T06:41:07;9.63;;;3.00;;
9465;SDS011;4771;48.726;9.006;2024-03-25T06:43:33;4.50;;;2.50;;
9465;SDS011;4771;48.726;9.006;2024-03-25T06:45:59;3.83;;;2.67;;
9465;SDS011;4771;48.726;9.006;2024-03-25T06:48:25;5.70;;;2.70;;
9465;SDS011;4771;48.726;9.006;2024-03-25T06:50:54;6.57;;;2.90;;
9465;SDS011;4771;48.726;9.006;2024-03-25T06:53:21;5.07;;;2.83;;
9465;SDS011;4771;48.726;9.006;2024-03-25T06:55:51;4.30;;;3.10;;
9465;SDS011;4771;48.726;9.006;2024-03-25T06:58:20;5.30;;;2.87;;
9465;SDS011;4771;48.726;9.006;2024-03-25T07:00:47;4.50;;;2.90;;
9465;SDS011;4771;48.726;9.006;2024-03-25T07:03:13;6.40;;;3.00;;
9465;SDS011;4771;48.726;9.006;2024-03-25T07:05:39;6.67;;;3.23;;
9465;SDS011;4771;48.726;9.006;2024-03-25T07:08:05;5.67;;;3.20;;
9465;SDS011;4771;48.726;9.006;2024-03-25T07:10:31;4.17;;;2.40;;
9465;SDS011;4771;48.726;9.006;2024-03-25T07:12:57;8.77;;;3.03;;
9465;SDS011;4771;48.726;9.006;2024-03-25T07:15:25;4.70;;;2.77;;
9465;SDS011;4771;48.726;9.006;2024-03-25T07:17:51;10.20;;;3.00;;
9465;SDS011;4771;48.726;9.006;2024-03-25T07:20:17;8.90;;;3.13;;
9465;SDS011;4771;48.726;9.006;2024-03-25T07:22:42;5.90;;;2.60;;
9465;SDS011;4771;48.726;9.006;2024-03-25T07:25:08;4.77;;;2.77;;
9465;SDS011;4771;48.726;9.006;2024-03-25T07:27:34;4.97;;;2.60;;
9465;SDS011;4771;48.726;9.006;2024-03-25T07:30:00;4.60;;;3.07;;
9465;SDS011;4771;48.726;9.006;2024-03-25T07:32:28;4.10;;;2.53;;
9465;SDS011;4771;48.726;9.006;2024-03-25T07:34:54;6.33;;;2.57;;
9465;SDS011;4771;48.726;9.006;2024-03-25T07:37:20;4.20;;;2.83;;
9465;SDS011;4771;48.726;9.006;2024-03-25T07:39:46;5.93;;;3.00;;
9465;SDS011;4771;48.726;9.006;2024-03-25T07:42:13;7.47;;;2.80;;
9465;SDS011;4771;48.726;9.006;2024-03-25T07:44:39;4.50;;;2.73;;
9465;SDS011;4771;48.726;9.006;2024-03-25T07:47:05;5.17;;;2.70;;
9465;SDS011;4771;48.726;9.006;2024-03-25T07:49:32;6.27;;;2.60;;
9465;SDS011;4771;48.726;9.006;2024-03-25T07:51:59;5.47;;;3.00;;
9465;SDS011;4771;48.726;9.006;2024-03-25T07:54:25;5.57;;;3.20;;
9465;SDS011;4771;48.726;9.006;2024-03-25T07:56:51;7.47;;;2.90;;
9465;SDS011;4771;48.726;9.006;2024-03-25T07:59:17;4.67;;;2.67;;
9465;SDS011;4771;48.726;9.006;2024-03-25T08:01:43;8.03;;;2.60;;
9465;SDS011;4771;48.726;9.006;2024-03-25T08:04:09;4.13;;;2.70;;
9465;SDS011;4771;48.726;9.006;2024-03-25T08:06:36;4.13;;;2.30;;
9465;SDS011;4771;48.726;9.006;2024-03-25T08:09:02;5.80;;;3.03;;
9465;SDS011;4771;48.726;9.006;2024-03-25T08:11:29;3.53;;;2.33;;
9465;SDS011;4771;48.726;9.006;2024-03-25T08:13:55;6.37;;;2.67;;
9465;SDS011;4771;48.726;9.006;2024-03-25T08:16:21;6.27;;;2.80;;
9465;SDS011;4771;48.726;9.006;2024-03-25T08:18:46;6.67;;;2.40;;
9465;SDS011;4771;48.726;9.006;2024-03-25T08:21:12;2.70;;;1.67;;
9465;SDS011;4771;48.726;9.006;2024-03-25T08:23:40;2.63;;;1.67;;
9465;SDS011;4771;48.726;9.006;2024-03-25T08:26:06;3.87;;;1.80;;
9465;SDS011;4771;48.726;9.006;2024-03-25T08:28:32;3.90;;;2.03;;
9465;SDS011;4771;48.726;9.006;2024-03-25T08:30:57;4.17;;;1.67;;
9465;SDS011;4771;48.726;9.006;2024-03-25T08:33:23;5.13;;;1.73;;
9465;SDS011;4771;48.726;9.006;2024-03-25T08:35:49;2.53;;;1.70;;
9465;SDS011;4771;48.726;9.006;2024-03-25T08:38:16;5.87;;;1.90;;
9465;SDS011;4771;48.726;9.006;2024-03-25T08:40:43;3.40;;;1.90;;
9465;SDS011;4771;48.726;9.006;2024-03-25T08:43:09;4.40;;;2.50;;
9465;SDS011;4771;48.726;9.006;2024-03-25T08:45:35;4.67;;;1.97;;
9465;SDS011;4771;48.726;9.006;2024-03-25T08:48:01;2.53;;;1.80;;
9465;SDS011;4771;48.726;9.006;2024-03-25T08:50:27;3.93;;;1.60;;
9465;SDS011;4771;48.726;9.006;2024-03-25T08:52:52;6.33;;;1.60;;
9465;SDS011;4771;48.726;9.006;2024-03-25T08:55:18;2.37;;;1.40;;
9465;SDS011;4771;48.726;9.006;2024-03-25T08:57:46;3.60;;;1.80;;
9465;SDS011;4771;48.726;9.006;2024-03-25T09:00:12;3.63;;;1.70;;
9465;SDS011;4771;48.726;9.006;2024-03-25T09:02:39;4.37;;;1.80;;
9465;SDS011;4771;48.726;9.006;2024-03-25T09:05:05;3.30;;;1.90;;
9465;SDS011;4771;48.726;9.006;2024-03-25T09:07:32;4.23;;;1.50;;
9465;SDS011;4771;48.726;9.006;2024-03-25T09:09:58;4.00;;;1.77;;
9465;SDS011;4771;48.726;9.006;2024-03-25T09:12:42;4.83;;;1.80;;
9465;SDS011;4771;48.726;9.006;2024-03-25T09:15:10;2.20;;;1.60;;
9465;SDS011;4771;48.726;9.006;2024-03-25T09:17:36;3.93;;;1.83;;
9465;SDS011;4771;48.726;9.006;2024-03-25T09:20:02;3.90;;;1.43;;
9465;SDS011;4771;48.726;9.006;2024-03-25T09:22:28;2.80;;;1.63;;
9465;SDS011;4771;48.726;9.006;2024-03-25T09:24:54;4.13;;;1.90;;
9465;SDS011;4771;48.726;9.006;2024-03-25T09:27:20;3.77;;;1.67;;
9465;SDS011;4771;48.726;9.006;2024-03-25T09:29:46;3.70;;;1.63;;
9465;SDS011;4771;48.726;9.006;2024-03-25T09:32:13;3.03;;;1.57;;
9465;SDS011;4771;48.726;9.006;2024-03-25T09:34:39;5.10;;;2.00;;
9465;SDS011;4771;48.726;9.006;2024-03-25T09:37:05;2.17;;;1.53;;
9465;SDS011;4771;48.726;9.006;2024-03-25T09:39:31;3.40;;;1.60;;
9465;SDS011;4771;48.726;9.006;2024-03-25T09:41:57;5.13;;;1.53;;
9465;SDS011;4771;48.726;9.006;2024-03-25T09:44:26;2.90;;;1.53;;
9465;SDS011;4771;48.726;9.006;2024-03-25T09:46:56;1.87;;;1.40;;
9465;SDS011;4771;48.726;9.006;2024-03-25T09:49:23;4.70;;;1.50;;
9465;SDS011;4771;48.726;9.006;2024-03-25T09:51:52;3.23;;;1.60;;
9465;SDS011;4771;48.726;9.006;2024-03-25T09:54:18;5.43;;;1.73;;
9465;SDS011;4771;48.726;9.006;2024-03-25T09:56:44;5.70;;;1.97;;
9465;SDS011;4771;48.726;9.006;2024-03-25T09:59:10;2.97;;;1.70;;
9465;SDS011;4771;48.726;9.006;2024-03-25T10:01:37;3.73;;;1.50;;
9465;SDS011;4771;48.726;9.006;2024-03-25T10:04:04;4.30;;;1.80;;
9465;SDS011;4771;48.726;9.006;2024-03-25T10:06:31;3.13;;;1.50;;
9465;SDS011;4771;48.726;9.006;2024-03-25T10:08:57;2.77;;;1.50;;
9465;SDS011;4771;48.726;9.006;2024-03-25T10:11:25;2.30;;;1.42;;
9465;SDS011;4771;48.726;9.006;2024-03-25T10:13:51;3.50;;;1.38;;
9465;SDS011;4771;48.726;9.006;2024-03-25T10:16:17;3.92;;;1.80;;
9465;SDS011;4771;48.726;9.006;2024-03-25T10:18:43;3.38;;;1.60;;
9465;SDS011;4771;48.726;9.006;2024-03-25T10:21:09;5.53;;;1.83;;
9465;SDS011;4771;48.726;9.006;2024-03-25T10:23:39;4.93;;;1.80;;
9465;SDS011;4771;48.726;9.006;2024-03-25T10:26:05;3.43;;;1.70;;
9465;SDS011;4771;48.726;9.006;2024-03-25T10:28:31;2.38;;;1.40;;
9465;SDS011;4771;48.726;9.006;2024-03-25T10:31:02;4.23;;;1.70;;
9465;SDS011;4771;48.726;9.006;2024-03-25T10:33:29;2.67;;;1.80;;
9465;SDS011;4771;48.726;9.006;2024-03-25T10:35:55;4.80;;;1.80;;
9465;SDS011;4771;48.726;9.006;2024-03-25T10:38:24;2.60;;;1.45;;
9465;SDS011;4771;48.726;9.006;2024-03-25T10:40:52;4.18;;;1.67;;
9465;SDS011;4771;48.726;9.006;2024-03-25T10:43:21;4.68;;;1.67;;
9465;SDS011;4771;48.726;9.006;2024-03-25T10:45:51;4.65;;;1.70;;
9465;SDS011;4771;48.726;9.006;2024-03-25T10:48:26;2.25;;;1.60;;
9465;SDS011;4771;48.726;9.006;2024-03-25T10:50:54;2.50;;;1.80;;
9465;SDS011;4771;48.726;9.006;2024-03-25T10:53:21;2.17;;;1.52;;
9465;SDS011;4771;48.726;9.006;2024-03-25T10:55:50;3.17;;;1.52;;
9465;SDS011;4771;48.726;9.006;2024-03-25T10:58:19;4.45;;;1.67;;
9465;SDS011;4771;48.726;9.006;2024-03-25T11:00:47;4.15;;;1.80;;
9465;SDS011;4771;48.726;9.006;2024-03-25T11:03:14;5.05;;;3.05;;
9465;SDS011;4771;48.726;9.006;2024-03-25T11:05:40;2.85;;;1.67;;
9465;SDS011;4771;48.726;9.006;2024-03-25T11:08:10;4.00;;;1.60;;
9465;SDS011;4771;48.726;9.006;2024-03-25T11:10:39;1.75;;;1.48;;
9465;SDS011;4771;48.726;9.006;2024-03-25T11:13:11;5.05;;;1.98;;
9465;SDS011;4771;48.726;9.006;2024-03-25T11:15:37;2.70;;;1.65;;
9465;SDS011;4771;48.726;9.006;2024-03-25T11:18:03;2.85;;;1.60;;
9465;SDS011;4771;48.726;9.006;2024-03-25T11:20:30;3.50;;;1.80;;
9465;SDS011;4771;48.726;9.006;2024-03-25T11:22:56;2.83;;;1.67;;
9465;SDS011;4771;48.726;9.006;2024-03-25T11:25:22;3.67;;;1.63;;
9465;SDS011;4771;48.726;9.006;2024-03-25T11:27:48;3.35;;;2.00;;
9465;SDS011;4771;48.726;9.006;2024-03-25T11:30:15;3.83;;;1.60;;
9465;SDS011;4771;48.726;9.006;2024-03-25T11:32:45;3.28;;;1.70;;
9465;SDS011;4771;48.726;9.006;2024-03-25T11:35:12;5.22;;;1.63;;
9465;SDS011;4771;48.726;9.006;2024-03-25T11:37:39;3.90;;;2.00;;
9465;SDS011;4771;48.726;9.006;2024-03-25T11:40:06;3.30;;;1.75;;
9465;SDS011;4771;48.726;9.006;2024-03-25T11:42:32;2.97;;;1.80;;
9465;SDS011;4771;48.726;9.006;2024-03-25T11:44:59;3.50;;;1.80;;
9465;SDS011;4771;48.726;9.006;2024-03-25T11:47:27;2.40;;;1.67;;
9465;SDS011;4771;48.726;9.006;2024-03-25T11:49:53;3.78;;;1.67;;
9465;SDS011;4771;48.726;9.006;2024-03-25T11:52:19;2.28;;;1.52;;
9465;SDS011;4771;48.726;9.006;2024-03-25T11:54:45;3.47;;;1.55;;
9465;SDS011;4771;48.726;9.006;2024-03-25T11:57:19;1.83;;;1.50;;
9465;SDS011;4771;48.726;9.006;2024-03-25T11:59:45;2.47;;;1.58;;
9465;SDS011;4771;48.726;9.006;2024-03-25T12:02:11;3.38;;;1.58;;
9465;SDS011;4771;48.726;9.006;2024-03-25T12:04:41;1.40;;;1.10;;
9465;SDS011;4771;48.726;9.006;2024-03-25T12:07:07;2.65;;;1.58;;
9465;SDS011;4771;48.726;9.006;2024-03-25T12:09:35;2.72;;;1.48;;
9465;SDS011;4771;48.726;9.006;2024-03-25T12:12:19;2.70;;;1.60;;
9465;SDS011;4771;48.726;9.006;2024-03-25T12:14:45;2.53;;;1.48;;
9465;SDS011;4771;48.726;9.006;2024-03-25T12:17:12;3.35;;;1.50;;
9465;SDS011;4771;48.726;9.006;2024-03-25T12:19:39;2.92;;;1.67;;
9465;SDS011;4771;48.726;9.006;2024-03-25T12:22:06;1.63;;;1.40;;
9465;SDS011;4771;48.726;9.006;2024-03-25T12:24:32;3.63;;;1.70;;
9465;SDS011;4771;48.726;9.006;2024-03-25T12:26:58;3.72;;;1.80;;
9465;SDS011;4771;48.726;9.006;2024-03-25T12:29:24;2.10;;;1.50;;
9465;SDS011;4771;48.726;9.006;2024-03-25T12:31:54;3.03;;;1.55;;
9465;SDS011;4771;48.726;9.006;2024-03-25T12:34:20;6.63;;;1.80;;
9465;SDS011;4771;48.726;9.006;2024-03-25T12:36:47;2.03;;;1.50;;
9465;SDS011;4771;48.726;9.006;2024-03-25T12:39:16;2.55;;;1.50;;
9465;SDS011;4771;48.726;9.006;2024-03-25T12:41:43;4.18;;;1.98;;
9465;SDS011;4771;48.726;9.006;2024-03-25T12:44:09;2.33;;;1.70;;
9465;SDS011;4771;48.726;9.006;2024-03-25T12:46:37;3.10;;;1.70;;
9465;SDS011;4771;48.726;9.006;2024-03-25T12:49:03;5.78;;;1.90;;
9465;SDS011;4771;48.726;9.006;2024-03-25T12:51:29;5.07;;;1.85;;
9465;SDS011;4771;48.726;9.006;2024-03-25T12:53:56;3.95;;;2.17;;
9465;SDS011;4771;48.726;9.006;2024-03-25T12:56:23;2.55;;;1.80;;
9465;SDS011;4771;48.726;9.006;2024-03-25T12:58:49;4.05;;;1.63;;
9465;SDS011;4771;48.726;9.006;2024-03-25T13:01:15;2.40;;;1.70;;
9465;SDS011;4771;48.726;9.006;2024-03-25T13:03:41;3.17;;;2.00;;
9465;SDS011;4771;48.726;9.006;2024-03-25T13:06:07;4.82;;;2.13;;
9465;SDS011;4771;48.726;9.006;2024-03-25T13:08:33;3.35;;;1.80;;
9465;SDS011;4771;48.726;9.006;2024-03-25T13:11:01;4.78;;;2.10;;
9465;SDS011;4771;48.726;9.006;2024-03-25T13:13:27;2.03;;;1.50;;
9465;SDS011;4771;48.726;9.006;2024-03-25T13:15:52;2.20;;;1.50;;
9465;SDS011;4771;48.726;9.006;2024-03-25T13:18:18;2.58;;;1.50;;
9465;SDS011;4771;48.726;9.006;2024-03-25T13:20:44;3.65;;;1.88;;
9465;SDS011;4771;48.726;9.006;2024-03-25T13:23:10;2.75;;;1.58;;
9465;SDS011;4771;48.726;9.006;2024-03-25T13:25:36;3.95;;;1.83;;
9465;SDS011;4771;48.726;9.006;2024-03-25T13:28:04;2.50;;;1.70;;
9465;SDS011;4771;48.726;9.006;2024-03-25T13:30:30;2.42;;;1.58;;
9465;SDS011;4771;48.726;9.006;2024-03-25T13:32:57;5.13;;;1.60;;
9465;SDS011;4771;48.726;9.006;2024-03-25T13:35:23;3.67;;;1.98;;
9465;SDS011;4771;48.726;9.006;2024-03-25T13:37:49;3.00;;;1.83;;
9465;SDS011;4771;48.726;9.006;2024-03-25T13:40:15;2.97;;;1.92;;
9465;SDS011;4771;48.726;9.006;2024-03-25T13:42:41;3.47;;;1.70;;
9465;SDS011;4771;48.726;9.006;2024-03-25T13:45:08;2.58;;;1.50;;
9465;SDS011;4771;48.726;9.006;2024-03-25T13:47:34;2.55;;;1.80;;
9465;SDS011;4771;48.726;9.006;2024-03-25T13:50:01;3.33;;;1.50;;
9465;SDS011;4771;48.726;9.006;2024-03-25T13:52:28;2.92;;;1.80;;
9465;SDS011;4771;48.726;9.006;2024-03-25T13:54:53;2.78;;;1.50;;
9465;SDS011;4771;48.726;9.006;2024-03-25T13:57:19;2.22;;;1.60;;
9465;SDS011;4771;48.726;9.006;2024-03-25T13:59:46;3.47;;;1.70;;
9465;SDS011;4771;48.726;9.006;2024-03-25T14:02:13;3.47;;;1.90;;
9465;SDS011;4771;48.726;9.006;2024-03-25T14:04:39;4.85;;;1.80;;
9465;SDS011;4771;48.726;9.006;2024-03-25T14:07:05;2.65;;;1.65;;
9465;SDS011;4771;48.726;9.006;2024-03-25T14:09:31;3.95;;;1.80;;
9465;SDS011;4771;48.726;9.006;2024-03-25T14:11:56;3.17;;;2.00;;
9465;SDS011;4771;48.726;9.006;2024-03-25T14:14:22;2.72;;;1.60;;
9465;SDS011;4771;48.726;9.006;2024-03-25T14:16:48;3.97;;;1.60;;
9465;SDS011;4771;48.726;9.006;2024-03-25T14:19:16;2.33;;;1.60;;
9465;SDS011;4771;48.726;9.006;2024-03-25T14:21:42;4.18;;;1.83;;
9465;SDS011;4771;48.726;9.006;2024-03-25T14:24:07;3.53;;;1.63;;
9465;SDS011;4771;48.726;9.006;2024-03-25T14:26:33;2.85;;;1.50;;
9465;SDS011;4771;48.726;9.006;2024-03-25T14:29:00;3.75;;;1.95;;
9465;SDS011;4771;48.726;9.006;2024-03-25T14:31:26;4.32;;;1.80;;
9465;SDS011;4771;48.726;9.006;2024-03-25T14:33:52;4.18;;;2.35;;
9465;SDS011;4771;48.726;9.006;2024-03-25T14:36:19;3.17;;;2.00;;
9465;SDS011;4771;48.726;9.006;2024-03-25T14:38:45;3.80;;;1.90;;
9465;SDS011;4771;48.726;9.006;2024-03-25T14:41:11;3.70;;;2.00;;
9465;SDS011;4771;48.726;9.006;2024-03-25T14:43:37;3.22;;;1.80;;
9465;SDS011;4771;48.726;9.006;2024-03-25T14:46:03;5.03;;;2.05;;
9465;SDS011;4771;48.726;9.006;2024-03-25T14:48:29;2.75;;;1.70;;
9465;SDS011;4771;48.726;9.006;2024-03-25T14:50:55;3.70;;;2.15;;
9465;SDS011;4771;48.726;9.006;2024-03-25T14:53:22;4.65;;;1.90;;
9465;SDS011;4771;48.726;9.006;2024-03-25T14:55:48;4.85;;;2.10;;
9465;SDS011;4771;48.726;9.006;2024-03-25T14:58:14;4.10;;;1.60;;
9465;SDS011;4771;48.726;9.006;2024-03-25T15:00:40;2.30;;;1.77;;
9465;SDS011;4771;48.726;9.006;2024-03-25T15:03:06;2.50;;;1.77;;
9465;SDS011;4771;48.726;9.006;2024-03-25T15:05:32;2.80;;;1.85;;
9465;SDS011;4771;48.726;9.006;2024-03-25T15:07:58;2.75;;;1.70;;
9465;SDS011;4771;48.726;9.006;2024-03-25T15:10:25;4.05;;;2.00;;
9465;SDS011;4771;48.726;9.006;2024-03-25T15:12:51;4.07;;;2.05;;